Time;durP1;ratioP1;P1;durP2;ratioP2;P2;SDS_P1;SDS_P2;PMS_P1;PMS_P2;Temp;Humidity;BMP_temperature;BMP_pressure;BME280_temperature;BME280_humidity;BME280_pressure;Samples;Min_cycle;Max_cycle;Signal;HPM_P1;HPM_P2
2024/02/25 00:01:10;;;;;;;7.55;3.30;;;3.90;99.90;;;;;;5063813;28;20029;-68
2024/02/25 00:03:35;;;;;;;5.53;3.10;;;3.80;99.90;;;;;;5063559;28;20029;-68
2024/02/25 00:06:01;;;;;;;8.75;3.25;;;3.90;99.90;;;;;;5062624;28;20067;-68
2024/02/25 00:08:26;;;;;;;5.47;3.03;;;3.90;99.90;;;;;;5063545;28;20065;-69
2024/02/25 00:10:52;;;;;;;5.75;3.13;;;3.90;99.90;;;;;;5062786;28;20021;-70
2024/02/25 00:13:18;;;;;;;7.70;3.10;;;3.90;99.90;;;;;;5063609;28;20028;-70
2024/02/25 00:15:43;;;;;;;5.20;2.70;;;3.90;99.90;;;;;;5063614;28;20058;-69
2024/02/25 00:18:09;;;;;;;8.18;3.03;;;3.90;99.90;;;;;;5060768;28;20052;-69
2024/02/25 00:20:34;;;;;;;5.10;2.53;;;3.90;99.90;;;;;;5061895;28;20029;-69
2024/02/25 00:23:00;;;;;;;6.68;3.33;;;3.90;99.90;;;;;;5061027;28;20040;-69
2024/02/25 00:25:25;;;;;;;5.63;3.05;;;3.90;99.90;;;;;;5060734;28;20028;-69
2024/02/25 00:27:51;;;;;;;7.32;3.80;;;3.90;99.90;;;;;;5061209;28;20116;-71
2024/02/25 00:30:17;;;;;;;6.93;3.47;;;3.90;99.90;;;;;;5063509;28;20033;-71
2024/02/25 00:32:42;;;;;;;7.00;3.53;;;3.90;99.90;;;;;;5062345;28;20036;-69
2024/02/25 00:35:08;;;;;;;7.60;3.60;;;3.90;99.90;;;;;;5062458;28;20036;-70
2024/02/25 00:37:33;;;;;;;8.13;3.40;;;4.00;99.90;;;;;;5063102;28;20044;-69
2024/02/25 00:39:59;;;;;;;9.07;4.25;;;4.00;99.90;;;;;;5059887;28;20446;-69
2024/02/25 00:42:25;;;;;;;9.30;3.75;;;4.00;99.90;;;;;;5060901;28;20064;-71
2024/02/25 00:44:50;;;;;;;8.43;4.07;;;4.00;99.90;;;;;;5061962;28;20025;-70
2024/02/25 00:47:16;;;;;;;7.05;4.20;;;4.00;99.90;;;;;;5061494;28;20028;-70
2024/02/25 00:49:42;;;;;;;9.25;4.40;;;4.00;99.90;;;;;;5061711;28;20045;-70
2024/02/25 00:52:08;;;;;;;7.07;3.67;;;4.00;99.90;;;;;;5060815;28;20033;-70
2024/02/25 00:54:33;;;;;;;7.82;3.65;;;4.00;99.90;;;;;;5062493;28;20029;-69
2024/02/25 00:56:59;;;;;;;8.02;3.90;;;4.00;99.90;;;;;;5062948;28;20045;-69
2024/02/25 00:59:25;;;;;;;9.88;3.83;;;4.00;99.90;;;;;;5063053;28;20171;-70
2024/02/25 01:01:53;;;;;;;8.07;3.88;;;4.10;99.90;;;;;;5062007;28;20029;-69
2024/02/25 01:04:20;;;;;;;12.27;3.90;;;4.00;99.90;;;;;;5062499;28;20134;-70
2024/02/25 01:06:48;;;;;;;8.10;3.47;;;4.00;99.90;;;;;;5061986;28;20067;-70
2024/02/25 01:09:13;;;;;;;7.97;3.50;;;4.00;99.90;;;;;;5061860;28;20041;-69
2024/02/25 01:11:39;;;;;;;8.23;3.90;;;4.00;99.90;;;;;;5062887;28;20089;-70
2024/02/25 01:14:04;;;;;;;12.10;3.95;;;4.00;99.90;;;;;;5061478;28;20084;-69
2024/02/25 01:16:30;;;;;;;6.68;3.72;;;4.00;99.90;;;;;;5062235;28;20092;-70
2024/02/25 01:18:56;;;;;;;6.90;3.72;;;4.00;99.90;;;;;;5061380;28;20677;-70
2024/02/25 01:21:21;;;;;;;7.38;4.03;;;4.00;99.90;;;;;;5062194;28;20393;-70
2024/02/25 01:23:47;;;;;;;7.88;3.80;;;4.00;99.90;;;;;;5062258;28;20065;-69
2024/02/25 01:26:13;;;;;;;7.43;3.65;;;4.10;99.90;;;;;;5061591;28;20021;-71
2024/02/25 01:28:39;;;;;;;8.77;4.10;;;4.00;99.90;;;;;;5061703;28;20029;-69
2024/02/25 01:31:05;;;;;;;8.45;4.05;;;4.00;99.90;;;;;;5062455;28;20039;-69
2024/02/25 01:33:31;;;;;;;6.93;3.97;;;4.00;99.90;;;;;;5061080;28;20021;-70
2024/02/25 01:35:57;;;;;;;10.40;4.30;;;4.00;99.90;;;;;;5061111;28;20029;-71
2024/02/25 01:38:23;;;;;;;11.38;3.88;;;4.00;99.90;;;;;;5062187;28;20048;-69
2024/02/25 01:40:48;;;;;;;9.55;4.03;;;4.00;99.90;;;;;;5062178;28;20084;-70
2024/02/25 01:43:17;;;;;;;9.25;3.75;;;4.00;99.90;;;;;;5061648;28;20052;-70
2024/02/25 01:45:44;;;;;;;7.47;3.80;;;4.00;99.90;;;;;;5061810;28;20044;-69
2024/02/25 01:48:10;;;;;;;8.48;3.50;;;4.00;99.90;;;;;;5060519;28;20029;-70
2024/02/25 01:50:37;;;;;;;7.15;3.70;;;4.00;99.90;;;;;;5060439;28;20025;-69
2024/02/25 01:53:04;;;;;;;6.50;3.55;;;3.90;99.90;;;;;;5059830;28;20056;-69
2024/02/25 01:55:31;;;;;;;11.45;3.85;;;3.90;99.90;;;;;;5061493;28;20032;-70
2024/02/25 01:57:58;;;;;;;9.73;4.10;;;3.90;99.90;;;;;;5060126;28;20040;-70
2024/02/25 02:00:27;;;;;;;6.53;3.58;;;3.90;99.90;;;;;;5061682;28;20064;-70
2024/02/25 02:02:53;;;;;;;8.15;3.60;;;3.90;99.90;;;;;;5061169;28;20025;-70
2024/02/25 02:05:18;;;;;;;6.95;3.70;;;3.80;99.90;;;;;;5061638;28;20039;-69
2024/02/25 02:07:47;;;;;;;6.72;4.00;;;3.80;99.90;;;;;;5061624;28;20037;-69
2024/02/25 02:10:13;;;;;;;8.02;3.55;;;3.80;99.90;;;;;;5058829;28;20075;-70
2024/02/25 02:12:43;;;;;;;6.00;3.50;;;3.90;99.90;;;;;;5061075;28;20035;-70
2024/02/25 02:15:10;;;;;;;10.52;3.65;;;3.80;99.90;;;;;;5060828;28;20028;-70
2024/02/25 02:17:40;;;;;;;8.45;3.15;;;3.80;99.90;;;;;;5060202;28;20060;-69
2024/02/25 02:20:11;;;;;;;6.10;3.45;;;3.80;99.90;;;;;;5060237;28;20120;-69
2024/02/25 02:22:40;;;;;;;9.40;3.60;;;3.80;99.90;;;;;;5060781;28;20036;-70
2024/02/25 02:25:07;;;;;;;5.65;3.10;;;3.80;99.90;;;;;;5059635;28;20441;-70
2024/02/25 02:27:32;;;;;;;6.10;3.10;;;3.80;99.90;;;;;;5061251;28;20543;-70
2024/02/25 02:29:58;;;;;;;5.50;2.90;;;3.80;99.90;;;;;;5060013;28;20029;-70
2024/02/25 02:32:23;;;;;;;5.95;3.00;;;3.90;99.90;;;;;;5061096;28;21074;-68
2024/02/25 02:34:49;;;;;;;6.38;2.80;;;3.90;99.90;;;;;;5076209;28;20025;-70
2024/02/25 02:37:14;;;;;;;8.73;3.72;;;3.90;99.90;;;;;;5060758;28;20040;-70
2024/02/25 02:39:40;;;;;;;10.40;3.33;;;3.90;99.90;;;;;;5061021;28;20039;-70
2024/02/25 02:42:10;;;;;;;6.97;2.75;;;4.00;99.90;;;;;;5058798;28;20032;-70
2024/02/25 02:44:36;;;;;;;7.20;2.80;;;4.00;99.90;;;;;;5060480;28;20068;-71
2024/02/25 02:47:02;;;;;;;4.05;2.15;;;4.00;99.90;;;;;;5060886;28;20029;-69
2024/02/25 02:49:27;;;;;;;6.00;2.33;;;4.00;99.90;;;;;;5061055;28;20067;-70
2024/02/25 02:51:53;;;;;;;3.95;2.03;;;4.00;99.90;;;;;;5060116;28;20036;-70
2024/02/25 02:54:18;;;;;;;4.78;2.55;;;4.00;99.90;;;;;;5060243;28;20022;-69
2024/02/25 02:56:44;;;;;;;3.88;2.30;;;4.00;99.90;;;;;;5060861;28;20104;-69
2024/02/25 02:59:09;;;;;;;4.45;2.60;;;4.10;99.90;;;;;;5060174;28;20052;-70
2024/02/25 03:01:35;;;;;;;3.45;2.13;;;3.90;99.90;;;;;;5060835;28;20029;-70
2024/02/25 03:04:01;;;;;;;5.65;2.60;;;3.90;99.90;;;;;;5059302;28;20037;-70
2024/02/25 03:06:26;;;;;;;5.57;2.40;;;3.80;99.90;;;;;;5058957;28;20036;-71
2024/02/25 03:08:52;;;;;;;5.60;2.00;;;3.80;99.90;;;;;;5059173;28;20179;-71
2024/02/25 03:11:17;;;;;;;5.72;2.30;;;3.80;99.90;;;;;;5058971;28;20055;-69
2024/02/25 03:13:43;;;;;;;6.47;2.17;;;3.80;99.90;;;;;;5060097;28;20041;-70
2024/02/25 03:16:08;;;;;;;6.20;2.50;;;3.80;99.90;;;;;;5059954;28;20436;-70
2024/02/25 03:18:34;;;;;;;4.10;1.95;;;3.80;99.90;;;;;;5059425;28;20128;-71
2024/02/25 03:21:00;;;;;;;6.25;2.20;;;3.80;99.90;;;;;;5060368;28;20029;-70
2024/02/25 03:23:25;;;;;;;5.80;2.53;;;3.80;99.90;;;;;;5060791;28;20028;-70
2024/02/25 03:25:51;;;;;;;3.80;2.38;;;3.80;99.90;;;;;;5060416;28;20025;-70
2024/02/25 03:28:16;;;;;;;5.38;2.15;;;3.80;99.90;;;;;;5060063;28;20042;-70
2024/02/25 03:30:42;;;;;;;3.22;1.75;;;3.70;99.90;;;;;;5062756;28;20037;-69
2024/02/25 03:33:08;;;;;;;6.68;2.10;;;3.80;99.90;;;;;;5064220;28;20068;-70
2024/02/25 03:35:33;;;;;;;5.00;2.15;;;3.80;99.90;;;;;;5064010;28;20025;-70
2024/02/25 03:38:00;;;;;;;3.63;2.05;;;3.80;99.90;;;;;;5063368;28;20044;-71
2024/02/25 03:40:26;;;;;;;4.75;1.90;;;3.80;99.90;;;;;;5064133;28;20017;-70
2024/02/25 03:42:52;;;;;;;4.40;2.00;;;3.90;99.90;;;;;;5065237;28;20087;-70
2024/02/25 03:45:17;;;;;;;7.43;2.13;;;3.80;99.90;;;;;;5064107;28;20024;-69
2024/02/25 03:47:43;;;;;;;3.22;1.77;;;3.90;99.90;;;;;;5064007;28;20032;-69
2024/02/25 03:50:10;;;;;;;2.88;1.60;;;3.80;99.90;;;;;;5064895;28;20025;-69
2024/02/25 03:52:37;;;;;;;4.25;1.98;;;3.80;99.90;;;;;;5065165;28;20135;-69
2024/02/25 03:55:03;;;;;;;5.70;2.22;;;3.90;99.90;;;;;;5064662;28;20027;-69
2024/02/25 03:57:28;;;;;;;3.55;1.95;;;3.80;99.90;;;;;;5064865;28;20123;-69
2024/02/25 03:59:54;;;;;;;4.13;1.92;;;3.80;99.90;;;;;;5064934;28;20112;-70
2024/02/25 04:02:19;;;;;;;5.97;1.92;;;3.80;99.90;;;;;;5063354;28;20021;-69
2024/02/25 04:04:46;;;;;;;5.30;2.30;;;3.80;99.90;;;;;;5063207;28;20021;-70
2024/02/25 04:07:13;;;;;;;4.03;1.90;;;3.80;99.90;;;;;;5064704;28;20024;-70
2024/02/25 04:09:39;;;;;;;4.15;2.03;;;3.80;99.90;;;;;;5064226;28;20064;-69
2024/02/25 04:12:06;;;;;;;3.15;1.90;;;3.80;99.90;;;;;;5063965;28;20017;-71
2024/02/25 04:14:31;;;;;;;4.38;1.77;;;3.80;99.90;;;;;;5064632;28;20588;-70
2024/02/25 04:16:57;;;;;;;6.78;2.22;;;3.80;99.90;;;;;;5063023;28;20029;-71
2024/02/25 04:19:23;;;;;;;5.03;1.88;;;3.80;99.90;;;;;;5063014;28;20029;-71
2024/02/25 04:21:49;;;;;;;4.70;1.42;;;3.80;99.90;;;;;;5064720;28;20028;-71
2024/02/25 04:24:14;;;;;;;4.82;1.73;;;3.80;99.90;;;;;;5063819;28;20017;-69
2024/02/25 04:26:44;;;;;;;5.40;1.83;;;3.80;99.90;;;;;;5064519;28;20017;-70
2024/02/25 04:29:09;;;;;;;4.45;1.42;;;3.80;99.90;;;;;;5062651;28;20079;-69
2024/02/25 04:31:43;;;;;;;4.18;1.90;;;3.80;99.90;;;;;;5063976;28;20428;-70
2024/02/25 04:34:09;;;;;;;4.30;1.55;;;3.80;99.90;;;;;;5064127;28;20013;-71
2024/02/25 04:36:35;;;;;;;4.65;1.80;;;3.80;99.90;;;;;;5061596;28;20033;-70
2024/02/25 04:39:01;;;;;;;2.65;1.75;;;3.80;99.90;;;;;;5059922;28;20155;-70
2024/02/25 04:41:27;;;;;;;6.38;1.70;;;3.90;99.90;;;;;;5062998;28;20024;-70
2024/02/25 04:43:52;;;;;;;4.93;2.35;;;3.90;99.90;;;;;;5062784;28;20082;-70
2024/02/25 04:46:18;;;;;;;5.43;2.28;;;3.90;99.90;;;;;;5062832;28;20044;-70
2024/02/25 04:48:44;;;;;;;3.22;1.80;;;3.90;99.90;;;;;;5063046;28;20447;-70
2024/02/25 04:51:10;;;;;;;5.18;1.95;;;3.90;99.90;;;;;;5063092;28;20028;-70
2024/02/25 04:53:39;;;;;;;3.83;1.80;;;4.00;99.90;;;;;;5063445;28;20025;-69
2024/02/25 04:56:05;;;;;;;6.28;1.80;;;4.00;99.90;;;;;;5063529;28;20051;-70
2024/02/25 04:58:30;;;;;;;5.28;1.60;;;4.00;99.90;;;;;;5063568;28;20069;-70
2024/02/25 05:00:57;;;;;;;3.35;1.40;;;4.00;99.90;;;;;;5058801;28;20478;-70
2024/02/25 05:03:22;;;;;;;6.50;1.60;;;4.00;99.90;;;;;;5063168;28;20084;-70
2024/02/25 05:05:49;;;;;;;6.15;1.60;;;4.10;99.90;;;;;;5059313;28;20072;-70
2024/02/25 05:08:15;;;;;;;5.25;1.60;;;4.10;99.90;;;;;;5062559;28;20099;-70
2024/02/25 05:10:41;;;;;;;5.22;1.80;;;4.10;99.90;;;;;;5063128;28;20068;-71
2024/02/25 05:13:07;;;;;;;2.70;1.38;;;4.10;99.90;;;;;;5063028;28;20442;-69
2024/02/25 05:15:33;;;;;;;5.75;1.67;;;4.10;99.90;;;;;;5063622;28;20057;-69
2024/02/25 05:17:59;;;;;;;5.25;1.73;;;4.10;99.90;;;;;;5063169;28;20048;-70
2024/02/25 05:20:26;;;;;;;4.25;1.60;;;4.10;99.90;;;;;;5062498;28;20046;-70
2024/02/25 05:22:52;;;;;;;5.03;1.60;;;4.10;99.90;;;;;;5062268;28;20024;-69
2024/02/25 05:25:18;;;;;;;1.92;1.40;;;4.10;99.90;;;;;;5061739;28;20505;-69
2024/02/25 05:27:43;;;;;;;4.93;1.63;;;4.10;99.90;;;;;;5062181;28;20025;-70
2024/02/25 05:30:09;;;;;;;3.30;1.77;;;4.10;99.90;;;;;;5063150;28;20032;-69
2024/02/25 05:32:36;;;;;;;5.80;1.60;;;4.20;99.90;;;;;;5063070;28;20080;-69
2024/02/25 05:35:06;;;;;;;3.22;1.60;;;4.20;99.90;;;;;;5062781;28;20035;-69
2024/02/25 05:37:32;;;;;;;2.97;1.67;;;4.20;99.90;;;;;;5061543;28;20044;-70
2024/02/25 05:39:57;;;;;;;4.45;1.70;;;4.20;99.90;;;;;;5061568;28;20108;-69
2024/02/25 05:42:23;;;;;;;5.07;1.83;;;4.20;99.90;;;;;;5062929;28;20025;-70
2024/02/25 05:44:51;;;;;;;4.63;1.70;;;4.20;99.90;;;;;;5063027;28;20040;-70
2024/02/25 05:47:16;;;;;;;3.92;1.80;;;4.20;99.90;;;;;;5061325;28;20606;-71
2024/02/25 05:49:42;;;;;;;6.47;2.05;;;4.20;99.90;;;;;;5058502;28;20060;-70
2024/02/25 05:52:07;;;;;;;6.30;2.03;;;4.20;99.90;;;;;;5061421;28;20049;-70
2024/02/25 05:54:33;;;;;;;3.10;1.85;;;4.20;99.90;;;;;;5060971;28;20035;-70
2024/02/25 05:56:59;;;;;;;7.18;1.95;;;4.10;99.90;;;;;;5060540;28;20105;-70
2024/02/25 05:59:25;;;;;;;3.75;1.77;;;4.10;99.90;;;;;;5060790;28;20032;-70
2024/02/25 06:01:51;;;;;;;7.07;2.38;;;4.10;99.90;;;;;;5058845;28;20024;-71
2024/02/25 06:04:19;;;;;;;5.70;2.28;;;4.10;99.90;;;;;;5061669;28;20024;-71
2024/02/25 06:06:52;;;;;;;3.63;1.67;;;4.00;99.90;;;;;;5061121;28;20488;-70
2024/02/25 06:09:18;;;;;;;6.43;2.47;;;4.10;99.90;;;;;;5060726;28;20048;-71
2024/02/25 06:11:45;;;;;;;3.72;2.00;;;4.10;99.90;;;;;;5061216;28;20033;-69
2024/02/25 06:14:10;;;;;;;8.15;2.25;;;4.10;99.90;;;;;;5062291;28;20020;-70
2024/02/25 06:16:36;;;;;;;5.70;2.17;;;4.10;99.90;;;;;;5061795;28;20359;-69
2024/02/25 06:19:02;;;;;;;7.15;2.90;;;4.10;99.90;;;;;;5061979;28;20044;-70
2024/02/25 06:21:28;;;;;;;8.43;3.03;;;4.10;99.90;;;;;;5061053;28;20104;-70
2024/02/25 06:23:53;;;;;;;10.73;2.60;;;4.20;99.90;;;;;;5059340;28;20389;-70
2024/02/25 06:26:19;;;;;;;6.65;2.60;;;4.20;99.90;;;;;;5060624;28;20029;-69
2024/02/25 06:28:44;;;;;;;6.00;2.47;;;4.20;99.90;;;;;;5056224;28;20025;-69
2024/02/25 06:31:10;;;;;;;5.03;2.20;;;4.20;99.90;;;;;;5060351;28;20033;-70
2024/02/25 06:33:36;;;;;;;6.50;2.78;;;4.20;99.90;;;;;;5060724;28;20104;-70
2024/02/25 06:36:02;;;;;;;14.52;2.70;;;4.20;99.90;;;;;;5060725;28;20036;-70
2024/02/25 06:38:27;;;;;;;6.13;2.50;;;4.30;99.90;;;;;;5059873;28;20086;-71
2024/02/25 06:40:53;;;;;;;6.05;2.60;;;4.30;99.90;;;;;;5061701;28;20037;-70
2024/02/25 06:43:19;;;;;;;6.18;2.45;;;4.30;99.90;;;;;;5061033;28;20162;-70
2024/02/25 06:45:44;;;;;;;5.28;2.53;;;4.30;99.90;;;;;;5061698;28;20009;-69
2024/02/25 06:48:10;;;;;;;4.25;2.63;;;4.30;99.90;;;;;;5059865;28;20044;-71
2024/02/25 06:50:35;;;;;;;3.60;2.55;;;4.30;99.90;;;;;;5061837;28;20024;-68
2024/02/25 06:53:01;;;;;;;4.78;2.42;;;4.30;99.90;;;;;;5059440;28;20029;-70
2024/02/25 06:55:27;;;;;;;5.05;2.30;;;4.30;99.90;;;;;;5060785;28;20067;-70
2024/02/25 06:57:52;;;;;;;6.20;2.78;;;4.30;99.90;;;;;;5061584;28;20049;-72
2024/02/25 07:00:18;;;;;;;6.55;3.00;;;4.30;99.90;;;;;;5060799;28;20079;-69
2024/02/25 07:02:44;;;;;;;4.75;2.45;;;4.30;99.90;;;;;;5062128;28;20116;-71
2024/02/25 07:05:10;;;;;;;4.88;2.38;;;4.40;99.90;;;;;;5064345;28;20029;-70
2024/02/25 07:07:38;;;;;;;5.75;2.60;;;4.40;99.90;;;;;;5065847;28;20028;-70
2024/02/25 07:10:05;;;;;;;6.28;2.28;;;4.40;99.90;;;;;;5064884;28;20060;-70
2024/02/25 07:12:31;;;;;;;5.75;3.00;;;4.40;99.90;;;;;;5065750;28;20059;-69
2024/02/25 07:14:56;;;;;;;3.28;1.92;;;4.40;99.90;;;;;;5065909;28;21372;-70
2024/02/25 07:17:22;;;;;;;7.25;3.00;;;4.40;99.90;;;;;;5065141;28;20056;-70
2024/02/25 07:19:59;;;;;;;5.40;2.80;;;4.40;99.90;;;;;;5064013;28;20025;-71
2024/02/25 07:22:24;;;;;;;6.82;2.40;;;4.50;99.90;;;;;;5062460;28;20087;-69
2024/02/25 07:24:50;;;;;;;5.32;2.90;;;4.50;99.90;;;;;;5063714;28;20390;-70
2024/02/25 07:27:15;;;;;;;6.75;3.35;;;4.50;99.90;;;;;;5059935;28;20052;-69
2024/02/25 07:29:41;;;;;;;7.43;3.47;;;4.50;99.90;;;;;;5061991;28;20021;-69
2024/02/25 07:32:06;;;;;;;5.40;2.90;;;4.50;99.90;;;;;;5060673;28;20036;-71
2024/02/25 07:34:32;;;;;;;6.53;3.08;;;4.50;99.90;;;;;;5064040;28;20021;-70
2024/02/25 07:36:57;;;;;;;8.82;3.15;;;4.60;99.90;;;;;;5062570;28;20039;-71
2024/02/25 07:39:23;;;;;;;6.70;2.85;;;4.60;99.90;;;;;;5063333;28;20397;-71
2024/02/25 07:41:49;;;;;;;8.27;3.17;;;4.60;99.90;;;;;;5063534;28;20032;-69
2024/02/25 07:44:15;;;;;;;8.27;3.13;;;4.70;99.90;;;;;;5063801;28;20021;-71
2024/02/25 07:46:41;;;;;;;8.45;3.10;;;4.70;99.90;;;;;;5062842;28;20028;-70
2024/02/25 07:49:06;;;;;;;7.03;3.58;;;4.80;99.90;;;;;;5065124;28;20029;-69
2024/02/25 07:51:35;;;;;;;5.65;2.88;;;4.80;99.90;;;;;;5061521;28;20147;-70
2024/02/25 07:54:01;;;;;;;6.88;3.53;;;4.80;99.90;;;;;;5062932;28;20056;-71
2024/02/25 07:56:27;;;;;;;7.35;3.22;;;4.80;99.90;;;;;;5063642;28;20052;-70
2024/02/25 07:58:53;;;;;;;6.50;3.60;;;4.90;99.90;;;;;;5064659;28;20029;-70
2024/02/25 08:01:18;;;;;;;7.43;3.20;;;4.90;99.90;;;;;;5062271;28;20025;-70
2024/02/25 08:03:44;;;;;;;6.13;3.35;;;4.90;99.90;;;;;;5063119;28;20033;-69
2024/02/25 08:06:10;;;;;;;6.75;3.10;;;4.90;99.90;;;;;;5064001;28;20035;-71
2024/02/25 08:08:35;;;;;;;9.07;3.28;;;4.90;99.90;;;;;;5062526;28;20045;-71
2024/02/25 08:11:01;;;;;;;7.97;3.45;;;5.00;99.90;;;;;;5062213;28;20044;-70
2024/02/25 08:13:26;;;;;;;7.72;3.30;;;5.00;99.90;;;;;;5063662;28;20029;-71
2024/02/25 08:15:52;;;;;;;10.20;3.65;;;5.10;99.90;;;;;;5059420;28;20033;-71
2024/02/25 08:18:17;;;;;;;9.30;3.33;;;5.20;99.90;;;;;;5059994;28;20056;-70
2024/02/25 08:20:43;;;;;;;6.40;3.60;;;5.20;99.90;;;;;;5060537;28;20112;-71
2024/02/25 08:23:08;;;;;;;8.18;3.30;;;5.20;99.90;;;;;;5061258;28;20478;-70
2024/02/25 08:25:34;;;;;;;7.97;3.60;;;5.20;99.90;;;;;;5061820;28;20074;-70
2024/02/25 08:27:59;;;;;;;8.38;3.55;;;5.30;99.90;;;;;;5058828;28;20060;-69
2024/02/25 08:30:25;;;;;;;6.88;3.55;;;5.30;99.90;;;;;;5063166;28;20037;-69
2024/02/25 08:32:51;;;;;;;8.07;3.40;;;5.40;99.90;;;;;;5061264;28;20063;-70
2024/02/25 08:35:17;;;;;;;6.13;3.28;;;5.40;99.90;;;;;;5058635;28;20035;-70
2024/02/25 08:37:42;;;;;;;7.63;3.45;;;5.50;99.90;;;;;;5059968;28;20041;-69
2024/02/25 08:40:08;;;;;;;9.02;3.78;;;5.60;99.90;;;;;;5057802;28;20032;-69
2024/02/25 08:42:34;;;;;;;6.55;3.83;;;5.60;99.90;;;;;;5062905;28;20036;-69
2024/02/25 08:44:59;;;;;;;5.70;3.47;;;5.60;99.90;;;;;;5058797;28;20105;-70
2024/02/25 08:47:25;;;;;;;7.22;3.83;;;5.70;99.90;;;;;;5058995;28;20138;-70
2024/02/25 08:49:50;;;;;;;6.88;3.33;;;5.80;99.90;;;;;;5056859;28;20047;-70
2024/02/25 08:52:17;;;;;;;7.38;3.78;;;5.80;99.90;;;;;;5062772;28;20029;-70
2024/02/25 08:54:43;;;;;;;5.97;3.45;;;5.80;99.90;;;;;;5062103;28;20021;-70
2024/02/25 08:57:09;;;;;;;6.95;3.65;;;5.90;99.90;;;;;;5057732;28;20049;-69
2024/02/25 08:59:35;;;;;;;8.05;3.70;;;5.90;99.90;;;;;;5061203;28;20378;-69
2024/02/25 09:02:01;;;;;;;4.75;3.05;;;6.00;99.90;;;;;;5061344;28;20055;-70
2024/02/25 09:04:29;;;;;;;6.07;3.30;;;6.00;99.90;;;;;;5061486;28;20025;-70
2024/02/25 09:06:57;;;;;;;4.90;2.90;;;6.00;99.90;;;;;;5057060;28;20104;-70
2024/02/25 09:09:22;;;;;;;4.60;2.65;;;6.00;99.90;;;;;;5059888;28;20057;-69
2024/02/25 09:11:48;;;;;;;7.03;3.20;;;6.00;99.90;;;;;;5061074;28;20032;-70
2024/02/25 09:14:13;;;;;;;6.93;3.90;;;6.00;99.90;;;;;;5061010;28;20029;-70
2024/02/25 09:16:39;;;;;;;6.05;3.35;;;5.90;99.90;;;;;;5060535;28;20089;-71
2024/02/25 09:19:04;;;;;;;8.20;3.38;;;6.00;99.90;;;;;;5061410;28;20382;-70
2024/02/25 09:21:30;;;;;;;5.90;3.10;;;6.10;99.90;;;;;;5059543;28;20029;-70
2024/02/25 09:23:56;;;;;;;6.90;3.40;;;6.10;99.90;;;;;;5058033;28;20044;-70
2024/02/25 09:26:22;;;;;;;5.63;3.40;;;6.20;99.90;;;;;;5060485;28;20025;-70
2024/02/25 09:28:48;;;;;;;5.22;3.22;;;6.10;99.90;;;;;;5057369;28;20033;-70
2024/02/25 09:31:20;;;;;;;5.13;3.38;;;6.30;99.90;;;;;;5060946;28;20037;-71
2024/02/25 09:33:49;;;;;;;9.15;3.47;;;6.30;99.90;;;;;;5059701;28;20285;-70
2024/02/25 09:36:15;;;;;;;5.00;3.10;;;6.40;99.90;;;;;;5062093;28;20687;-69
2024/02/25 09:38:41;;;;;;;5.35;3.05;;;6.40;99.90;;;;;;5061990;28;20482;-70
2024/02/25 09:41:08;;;;;;;4.63;2.80;;;6.40;99.90;;;;;;5060917;28;20059;-70
2024/02/25 09:43:34;;;;;;;5.60;2.80;;;6.40;99.90;;;;;;5060644;28;20032;-69
2024/02/25 09:46:03;;;;;;;4.78;3.30;;;6.30;99.90;;;;;;5060761;28;20104;-70
2024/02/25 09:48:29;;;;;;;3.72;2.25;;;6.40;99.90;;;;;;5059806;28;20029;-70
2024/02/25 09:50:55;;;;;;;5.65;3.03;;;6.40;99.90;;;;;;5057150;28;20036;-70
2024/02/25 09:53:21;;;;;;;8.20;3.60;;;6.40;99.90;;;;;;5060682;28;20029;-69
2024/02/25 09:55:48;;;;;;;10.02;3.90;;;6.50;99.90;;;;;;5059443;28;20060;-70
2024/02/25 09:58:14;;;;;;;6.45;3.97;;;6.50;99.90;;;;;;5057948;28;20062;-70
2024/02/25 10:00:40;;;;;;;5.55;3.80;;;6.50;99.90;;;;;;5055053;28;20029;-72
2024/02/25 10:03:11;;;;;;;6.18;3.45;;;6.50;99.90;;;;;;5051828;28;20025;-71
2024/02/25 10:05:37;;;;;;;8.07;3.30;;;6.50;99.90;;;;;;5058059;28;20064;-71
2024/02/25 10:08:04;;;;;;;14.18;6.20;;;6.50;99.90;;;;;;5053038;28;20083;-70
2024/02/25 10:10:33;;;;;;;30.35;11.70;;;6.50;99.90;;;;;;5054423;28;20040;-71
2024/02/25 10:13:03;;;;;;;19.38;7.68;;;6.60;99.90;;;;;;5058162;28;20036;-71
2024/02/25 10:15:31;;;;;;;8.45;4.88;;;6.60;99.90;;;;;;5056226;28;20055;-68
2024/02/25 10:17:56;;;;;;;6.13;4.00;;;6.70;99.90;;;;;;5042732;28;20037;-70
2024/02/25 10:20:22;;;;;;;4.82;2.83;;;6.70;99.90;;;;;;5053833;28;20031;-71
2024/02/25 10:23:04;;;;;;;4.88;2.83;;;6.90;99.90;;;;;;5058352;28;20040;-69
2024/02/25 10:25:29;;;;;;;5.82;2.65;;;6.80;99.90;;;;;;5058051;28;20021;-72
2024/02/25 10:28:14;;;;;;;3.25;2.13;;;6.90;99.90;;;;;;5056886;28;20100;-72
2024/02/25 10:30:56;;;;;;;3.50;2.45;;;6.90;99.90;;;;;;5059682;28;20501;-71
2024/02/25 10:33:21;;;;;;;3.95;2.63;;;7.10;99.90;;;;;;5061604;28;20506;-70
2024/02/25 10:35:47;;;;;;;3.10;2.30;;;7.20;99.90;;;;;;5058618;28;20481;-69
2024/02/25 10:38:13;;;;;;;6.22;2.47;;;7.20;99.90;;;;;;5060771;28;20160;-69
2024/02/25 10:40:40;;;;;;;4.57;2.65;;;7.20;99.90;;;;;;5063372;28;20025;-69
2024/02/25 10:43:09;;;;;;;4.38;2.08;;;7.20;99.90;;;;;;5064427;28;20031;-70
2024/02/25 10:45:40;;;;;;;3.63;2.58;;;7.10;99.90;;;;;;5064161;28;20048;-70
2024/02/25 10:48:14;;;;;;;4.03;2.75;;;7.10;99.90;;;;;;5063847;28;20037;-70
2024/02/25 10:50:41;;;;;;;5.00;2.40;;;7.10;99.90;;;;;;5059572;28;20101;-70
2024/02/25 10:53:10;;;;;;;3.70;2.55;;;7.00;99.90;;;;;;5059431;28;20041;-71
2024/02/25 10:55:37;;;;;;;4.38;2.40;;;7.00;99.90;;;;;;5060564;28;20029;-69
2024/02/25 10:58:05;;;;;;;3.53;2.15;;;7.00;99.90;;;;;;5060201;28;20045;-72
2024/02/25 11:00:31;;;;;;;7.55;2.95;;;6.90;99.90;;;;;;5060869;28;20040;-68
2024/02/25 11:02:58;;;;;;;3.53;2.88;;;6.90;99.90;;;;;;5060933;28;20033;-71
2024/02/25 11:05:24;;;;;;;5.75;2.78;;;6.90;99.90;;;;;;5058891;28;20029;-70
2024/02/25 11:07:49;;;;;;;4.95;2.67;;;6.90;99.90;;;;;;5061471;28;20701;-70
2024/02/25 11:10:19;;;;;;;4.35;2.47;;;7.00;99.90;;;;;;5062510;28;20037;-71
2024/02/25 11:12:45;;;;;;;5.97;2.80;;;7.00;99.90;;;;;;5062115;28;20067;-70
2024/02/25 11:15:19;;;;;;;3.75;2.53;;;7.00;99.90;;;;;;5060431;28;20037;-71
2024/02/25 11:17:48;;;;;;;5.53;2.85;;;7.10;99.90;;;;;;5061819;28;20037;-70
2024/02/25 11:20:19;;;;;;;5.07;2.70;;;7.10;99.90;;;;;;5063442;28;21069;-69
2024/02/25 11:22:50;;;;;;;5.07;2.47;;;7.10;99.90;;;;;;5062155;28;20041;-70
2024/02/25 11:25:28;;;;;;;5.68;2.90;;;7.00;99.90;;;;;;5062406;28;20029;-70
2024/02/25 11:27:56;;;;;;;5.10;3.05;;;6.90;99.90;;;;;;5062935;28;20033;-72
2024/02/25 11:30:22;;;;;;;4.47;3.25;;;6.90;99.90;;;;;;5063779;28;20035;-71
2024/02/25 11:32:48;;;;;;;6.07;3.17;;;6.90;99.90;;;;;;5063162;28;20036;-70
2024/02/25 11:35:15;;;;;;;3.28;2.63;;;6.80;99.90;;;;;;5062690;28;20033;-73
2024/02/25 11:37:44;;;;;;;3.55;2.88;;;6.80;99.90;;;;;;5062607;28;20040;-72
2024/02/25 11:40:10;;;;;;;4.63;3.22;;;6.70;99.90;;;;;;5060925;28;20099;-73
2024/02/25 11:42:38;;;;;;;3.45;2.22;;;6.70;99.90;;;;;;5063575;28;20024;-71
2024/02/25 11:45:04;;;;;;;4.93;2.65;;;6.70;99.90;;;;;;5064239;28;20121;-71
2024/02/25 11:47:29;;;;;;;8.00;5.07;;;6.70;99.90;;;;;;5063697;28;20033;-72
2024/02/25 11:49:57;;;;;;;5.53;3.22;;;6.70;99.90;;;;;;5061667;28;20097;-71
2024/02/25 11:52:23;;;;;;;5.35;3.90;;;6.70;99.90;;;;;;5060566;28;20040;-71
2024/02/25 11:54:49;;;;;;;5.32;3.80;;;6.70;99.90;;;;;;5061573;28;20041;-71
2024/02/25 11:57:14;;;;;;;5.85;4.40;;;6.70;99.90;;;;;;5062887;28;20048;-72
2024/02/25 11:59:40;;;;;;;6.55;4.43;;;6.70;99.90;;;;;;5061510;28;20033;-72
2024/02/25 12:02:06;;;;;;;6.82;4.70;;;6.80;99.90;;;;;;5060776;28;20079;-70
2024/02/25 12:04:32;;;;;;;8.15;5.22;;;6.80;99.90;;;;;;5062622;28;20041;-72
2024/02/25 12:06:59;;;;;;;13.68;8.00;;;7.00;99.90;;;;;;5064230;28;20017;-73
2024/02/25 12:09:25;;;;;;;9.57;6.25;;;7.10;99.90;;;;;;5062508;28;20049;-71
2024/02/25 12:11:51;;;;;;;7.80;5.07;;;7.20;99.90;;;;;;5061470;28;20036;-71
2024/02/25 12:14:19;;;;;;;9.57;5.88;;;7.30;99.90;;;;;;5061014;28;20044;-71
2024/02/25 12:16:45;;;;;;;10.10;6.25;;;7.30;99.90;;;;;;5063441;28;20070;-70
2024/02/25 12:19:12;;;;;;;8.95;6.30;;;7.40;99.90;;;;;;5061972;28;20500;-72
2024/02/25 12:21:40;;;;;;;7.78;4.47;;;7.40;99.90;;;;;;5063283;28;20029;-73
2024/02/25 12:24:06;;;;;;;8.77;6.40;;;7.50;99.90;;;;;;5059685;28;20029;-71
2024/02/25 12:26:53;;;;;;;8.57;6.43;;;7.50;99.90;;;;;;5061521;28;20051;-70
2024/02/25 12:29:20;;;;;;;8.55;6.55;;;7.50;99.90;;;;;;5062494;28;20032;-74
2024/02/25 12:31:47;;;;;;;8.85;6.43;;;7.40;99.90;;;;;;5059864;28;20070;-74
2024/02/25 12:34:13;;;;;;;12.02;6.30;;;7.40;99.90;;;;;;5061915;28;20017;-71
2024/02/25 12:36:41;;;;;;;14.73;7.72;;;7.50;99.90;;;;;;5063145;28;20026;-75
2024/02/25 12:39:13;;;;;;;65.70;15.90;;;7.50;99.90;;;;;;5062743;28;20045;-70
2024/02/25 12:41:40;;;;;;;33.22;11.15;;;7.60;99.90;;;;;;5064115;28;20037;-72
2024/02/25 12:44:07;;;;;;;13.95;8.38;;;7.60;99.90;;;;;;5060654;28;20037;-73
2024/02/25 12:46:35;;;;;;;23.38;9.45;;;7.70;99.90;;;;;;5058105;28;20025;-73
2024/02/25 12:49:12;;;;;;;9.75;6.53;;;7.70;99.90;;;;;;5058135;28;20029;-75
2024/02/25 12:51:38;;;;;;;13.55;7.30;;;7.80;99.90;;;;;;5077752;28;20055;-74